sensor_id;sensor_type;location;lat;lon;timestamp;P1;durP1;ratioP1;P2;durP2;ratioP2
67092;SDS011;54011;50.772;7.730;2023-03-24T00:02:09;5.63;;;1.73;;
67092;SDS011;54011;50.772;7.730;2023-03-24T00:04:40;3.63;;;1.45;;
67092;SDS011;54011;50.772;7.730;2023-03-24T00:07:10;4.43;;;1.45;;
67092;SDS011;54011;50.772;7.730;2023-03-24T00:09:42;4.45;;;1.58;;
67092;SDS011;54011;50.772;7.730;2023-03-24T00:12:08;2.55;;;1.20;;
67092;SDS011;54011;50.772;7.730;2023-03-24T00:14:36;4.90;;;1.50;;
67092;SDS011;54011;50.772;7.730;2023-03-24T00:17:06;7.75;;;1.90;;
67092;SDS011;54011;50.772;7.730;2023-03-24T00:19:34;2.33;;;1.10;;
67092;SDS011;54011;50.772;7.730;2023-03-24T00:22:04;4.90;;;1.63;;
67092;SDS011;54011;50.772;7.730;2023-03-24T00:24:32;4.97;;;1.77;;
67092;SDS011;54011;50.772;7.730;2023-03-24T00:27:02;2.70;;;1.10;;
67092;SDS011;54011;50.772;7.730;2023-03-24T00:29:28;6.68;;;1.77;;
67092;SDS011;54011;50.772;7.730;2023-03-24T00:31:53;4.93;;;1.60;;
67092;SDS011;54011;50.772;7.730;2023-03-24T00:34:20;4.45;;;1.83;;
67092;SDS011;54011;50.772;7.730;2023-03-24T00:36:49;4.03;;;1.38;;
67092;SDS011;54011;50.772;7.730;2023-03-24T00:39:17;3.45;;;1.60;;
67092;SDS011;54011;50.772;7.730;2023-03-24T00:41:49;3.15;;;1.20;;
67092;SDS011;54011;50.772;7.730;2023-03-24T00:44:15;2.38;;;1.10;;
67092;SDS011;54011;50.772;7.730;2023-03-24T00:46:45;3.13;;;1.42;;
67092;SDS011;54011;50.772;7.730;2023-03-24T00:49:19;2.83;;;1.27;;
67092;SDS011;54011;50.772;7.730;2023-03-24T00:52:11;5.72;;;1.75;;
67092;SDS011;54011;50.772;7.730;2023-03-24T00:54:43;5.10;;;1.67;;
67092;SDS011;54011;50.772;7.730;2023-03-24T00:57:17;4.43;;;1.52;;
67092;SDS011;54011;50.772;7.730;2023-03-24T00:59:48;3.20;;;1.67;;
67092;SDS011;54011;50.772;7.730;2023-03-24T01:02:15;2.75;;;1.10;;
67092;SDS011;54011;50.772;7.730;2023-03-24T01:04:56;4.55;;;1.77;;
67092;SDS011;54011;50.772;7.730;2023-03-24T01:07:32;5.05;;;1.70;;
67092;SDS011;54011;50.772;7.730;2023-03-24T01:09:58;3.20;;;1.48;;
67092;SDS011;54011;50.772;7.730;2023-03-24T01:12:29;4.97;;;1.52;;
67092;SDS011;54011;50.772;7.730;2023-03-24T01:15:00;3.85;;;1.60;;
67092;SDS011;54011;50.772;7.730;2023-03-24T01:17:29;5.38;;;1.83;;
67092;SDS011;54011;50.772;7.730;2023-03-24T01:19:56;6.15;;;1.67;;
67092;SDS011;54011;50.772;7.730;2023-03-24T01:22:25;4.55;;;1.80;;
67092;SDS011;54011;50.772;7.730;2023-03-24T01:24:53;4.65;;;1.60;;
67092;SDS011;54011;50.772;7.730;2023-03-24T01:27:19;4.55;;;1.73;;
67092;SDS011;54011;50.772;7.730;2023-03-24T01:29:44;6.63;;;1.63;;
67092;SDS011;54011;50.772;7.730;2023-03-24T01:32:10;5.15;;;1.60;;
67092;SDS011;54011;50.772;7.730;2023-03-24T01:34:35;3.53;;;1.48;;
67092;SDS011;54011;50.772;7.730;2023-03-24T01:37:01;4.63;;;1.30;;
67092;SDS011;54011;50.772;7.730;2023-03-24T01:39:27;4.03;;;1.42;;
67092;SDS011;54011;50.772;7.730;2023-03-24T01:41:54;3.55;;;1.60;;
67092;SDS011;54011;50.772;7.730;2023-03-24T01:46:56;4.30;;;1.45;;
67092;SDS011;54011;50.772;7.730;2023-03-24T01:49:23;3.50;;;1.70;;
67092;SDS011;54011;50.772;7.730;2023-03-24T01:51:54;3.07;;;1.37;;
67092;SDS011;54011;50.772;7.730;2023-03-24T01:54:22;5.00;;;1.65;;
67092;SDS011;54011;50.772;7.730;2023-03-24T01:56:55;3.35;;;1.50;;
67092;SDS011;54011;50.772;7.730;2023-03-24T01:59:35;3.00;;;1.13;;
67092;SDS011;54011;50.772;7.730;2023-03-24T02:02:14;2.90;;;1.40;;
67092;SDS011;54011;50.772;7.730;2023-03-24T02:04:47;2.88;;;1.30;;
67092;SDS011;54011;50.772;7.730;2023-03-24T02:07:39;3.85;;;1.60;;
67092;SDS011;54011;50.772;7.730;2023-03-24T02:10:11;3.92;;;1.27;;
67092;SDS011;54011;50.772;7.730;2023-03-24T02:12:40;4.20;;;1.70;;
67092;SDS011;54011;50.772;7.730;2023-03-24T02:15:08;4.50;;;2.00;;
67092;SDS011;54011;50.772;7.730;2023-03-24T02:17:46;4.28;;;1.80;;
67092;SDS011;54011;50.772;7.730;2023-03-24T02:20:37;2.80;;;1.40;;
67092;SDS011;54011;50.772;7.730;2023-03-24T02:53:32;3.72;;;1.70;;
67092;SDS011;54011;50.772;7.730;2023-03-24T02:59:09;6.53;;;3.15;;
67092;SDS011;54011;50.772;7.730;2023-03-24T03:01:43;4.85;;;2.47;;
67092;SDS011;54011;50.772;7.730;2023-03-24T03:04:42;5.30;;;2.40;;
67092;SDS011;54011;50.772;7.730;2023-03-24T03:07:14;7.07;;;3.50;;
67092;SDS011;54011;50.772;7.730;2023-03-24T03:09:51;5.88;;;3.05;;
67092;SDS011;54011;50.772;7.730;2023-03-24T03:12:21;5.50;;;3.00;;
67092;SDS011;54011;50.772;7.730;2023-03-24T03:14:51;6.03;;;2.90;;
67092;SDS011;54011;50.772;7.730;2023-03-24T03:17:23;5.90;;;2.97;;
67092;SDS011;54011;50.772;7.730;2023-03-24T03:19:59;3.75;;;2.05;;
67092;SDS011;54011;50.772;7.730;2023-03-24T03:22:33;6.03;;;2.33;;
67092;SDS011;54011;50.772;7.730;2023-03-24T03:25:36;4.82;;;2.55;;
67092;SDS011;54011;50.772;7.730;2023-03-24T03:28:06;4.57;;;2.55;;
67092;SDS011;54011;50.772;7.730;2023-03-24T03:30:36;6.85;;;2.85;;
67092;SDS011;54011;50.772;7.730;2023-03-24T03:33:11;4.97;;;2.72;;
67092;SDS011;54011;50.772;7.730;2023-03-24T03:35:44;4.93;;;2.65;;
67092;SDS011;54011;50.772;7.730;2023-03-24T03:38:21;5.90;;;3.13;;
67092;SDS011;54011;50.772;7.730;2023-03-24T03:40:54;9.02;;;3.15;;
67092;SDS011;54011;50.772;7.730;2023-03-24T03:43:29;5.55;;;3.20;;
67092;SDS011;54011;50.772;7.730;2023-03-24T03:45:56;5.90;;;2.92;;
67092;SDS011;54011;50.772;7.730;2023-03-24T03:48:29;8.55;;;3.72;;
67092;SDS011;54011;50.772;7.730;2023-03-24T03:50:55;7.80;;;3.97;;
67092;SDS011;54011;50.772;7.730;2023-03-24T03:53:22;6.40;;;3.30;;
67092;SDS011;54011;50.772;7.730;2023-03-24T03:55:52;7.00;;;3.83;;
67092;SDS011;54011;50.772;7.730;2023-03-24T03:58:18;6.80;;;3.53;;
67092;SDS011;54011;50.772;7.730;2023-03-24T04:00:52;7.75;;;3.75;;
67092;SDS011;54011;50.772;7.730;2023-03-24T04:13:16;7.07;;;3.15;;
67092;SDS011;54011;50.772;7.730;2023-03-24T04:15:56;7.47;;;3.60;;
67092;SDS011;54011;50.772;7.730;2023-03-24T04:18:57;5.68;;;3.03;;
67092;SDS011;54011;50.772;7.730;2023-03-24T04:24:04;4.35;;;2.53;;
67092;SDS011;54011;50.772;7.730;2023-03-24T04:29:57;6.53;;;2.63;;
67092;SDS011;54011;50.772;7.730;2023-03-24T04:32:51;5.47;;;2.78;;
67092;SDS011;54011;50.772;7.730;2023-03-24T04:35:25;7.45;;;3.22;;
67092;SDS011;54011;50.772;7.730;2023-03-24T04:38:15;5.03;;;2.85;;
67092;SDS011;54011;50.772;7.730;2023-03-24T04:40:52;5.30;;;3.22;;
67092;SDS011;54011;50.772;7.730;2023-03-24T04:43:22;5.32;;;2.95;;
67092;SDS011;54011;50.772;7.730;2023-03-24T04:45:52;6.78;;;3.38;;
67092;SDS011;54011;50.772;7.730;2023-03-24T04:48:47;5.32;;;2.85;;
67092;SDS011;54011;50.772;7.730;2023-03-24T04:51:21;6.57;;;2.80;;
67092;SDS011;54011;50.772;7.730;2023-03-24T04:54:07;6.28;;;3.85;;
67092;SDS011;54011;50.772;7.730;2023-03-24T04:59:24;8.38;;;3.55;;
67092;SDS011;54011;50.772;7.730;2023-03-24T05:01:50;5.78;;;2.72;;
67092;SDS011;54011;50.772;7.730;2023-03-24T05:04:38;5.65;;;2.78;;
67092;SDS011;54011;50.772;7.730;2023-03-24T05:07:16;5.57;;;2.80;;
67092;SDS011;54011;50.772;7.730;2023-03-24T05:09:44;6.47;;;2.90;;
67092;SDS011;54011;50.772;7.730;2023-03-24T05:12:10;6.88;;;3.67;;
67092;SDS011;54011;50.772;7.730;2023-03-24T05:15:10;5.47;;;2.75;;
67092;SDS011;54011;50.772;7.730;2023-03-24T05:17:37;5.68;;;2.50;;
67092;SDS011;54011;50.772;7.730;2023-03-24T05:20:03;5.28;;;3.03;;
67092;SDS011;54011;50.772;7.730;2023-03-24T05:22:38;4.68;;;2.47;;
67092;SDS011;54011;50.772;7.730;2023-03-24T05:25:04;4.30;;;2.53;;
67092;SDS011;54011;50.772;7.730;2023-03-24T05:27:30;5.68;;;3.03;;
67092;SDS011;54011;50.772;7.730;2023-03-24T05:29:59;6.93;;;3.30;;
67092;SDS011;54011;50.772;7.730;2023-03-24T05:32:28;5.22;;;3.13;;
67092;SDS011;54011;50.772;7.730;2023-03-24T05:34:53;7.80;;;3.08;;
67092;SDS011;54011;50.772;7.730;2023-03-24T05:37:27;4.82;;;2.75;;
67092;SDS011;54011;50.772;7.730;2023-03-24T05:39:54;4.65;;;2.63;;
67092;SDS011;54011;50.772;7.730;2023-03-24T05:42:34;6.10;;;3.00;;
67092;SDS011;54011;50.772;7.730;2023-03-24T05:45:02;6.60;;;3.33;;
67092;SDS011;54011;50.772;7.730;2023-03-24T05:47:29;7.32;;;3.10;;
67092;SDS011;54011;50.772;7.730;2023-03-24T05:49:54;5.07;;;2.92;;
67092;SDS011;54011;50.772;7.730;2023-03-24T05:52:20;7.85;;;2.85;;
67092;SDS011;54011;50.772;7.730;2023-03-24T05:54:48;6.45;;;2.80;;
67092;SDS011;54011;50.772;7.730;2023-03-24T05:57:23;4.38;;;2.30;;
67092;SDS011;54011;50.772;7.730;2023-03-24T06:00:09;7.57;;;2.58;;
67092;SDS011;54011;50.772;7.730;2023-03-24T06:02:47;6.80;;;2.65;;
67092;SDS011;54011;50.772;7.730;2023-03-24T06:05:31;4.03;;;1.92;;
67092;SDS011;54011;50.772;7.730;2023-03-24T06:07:57;6.13;;;2.72;;
67092;SDS011;54011;50.772;7.730;2023-03-24T06:10:26;5.88;;;1.73;;
67092;SDS011;54011;50.772;7.730;2023-03-24T06:12:54;3.58;;;1.40;;
67092;SDS011;54011;50.772;7.730;2023-03-24T06:15:22;3.42;;;1.17;;
67092;SDS011;54011;50.772;7.730;2023-03-24T06:17:52;3.35;;;1.10;;
67092;SDS011;54011;50.772;7.730;2023-03-24T06:20:26;4.82;;;1.15;;
67092;SDS011;54011;50.772;7.730;2023-03-24T06:23:05;4.40;;;0.82;;
67092;SDS011;54011;50.772;7.730;2023-03-24T06:25:47;3.58;;;1.13;;
67092;SDS011;54011;50.772;7.730;2023-03-24T06:28:24;5.45;;;1.58;;
67092;SDS011;54011;50.772;7.730;2023-03-24T06:30:57;6.88;;;1.55;;
67092;SDS011;54011;50.772;7.730;2023-03-24T06:33:32;3.67;;;0.98;;
67092;SDS011;54011;50.772;7.730;2023-03-24T06:35:59;1.55;;;0.63;;
67092;SDS011;54011;50.772;7.730;2023-03-24T06:38:36;1.88;;;0.75;;
67092;SDS011;54011;50.772;7.730;2023-03-24T06:41:03;3.67;;;1.40;;
67092;SDS011;54011;50.772;7.730;2023-03-24T06:43:30;4.55;;;1.50;;
67092;SDS011;54011;50.772;7.730;2023-03-24T06:45:56;4.85;;;1.50;;
67092;SDS011;54011;50.772;7.730;2023-03-24T06:48:23;6.63;;;1.52;;
67092;SDS011;54011;50.772;7.730;2023-03-24T06:50:53;2.83;;;1.25;;
67092;SDS011;54011;50.772;7.730;2023-03-24T06:53:20;2.67;;;1.08;;
67092;SDS011;54011;50.772;7.730;2023-03-24T06:55:46;3.20;;;1.10;;
67092;SDS011;54011;50.772;7.730;2023-03-24T06:58:13;4.35;;;1.25;;
67092;SDS011;54011;50.772;7.730;2023-03-24T07:01:00;8.25;;;1.60;;
67092;SDS011;54011;50.772;7.730;2023-03-24T07:03:48;2.72;;;0.80;;
67092;SDS011;54011;50.772;7.730;2023-03-24T07:06:36;7.13;;;1.80;;
67092;SDS011;54011;50.772;7.730;2023-03-24T07:09:10;7.15;;;1.77;;
67092;SDS011;54011;50.772;7.730;2023-03-24T07:11:36;5.93;;;1.00;;
67092;SDS011;54011;50.772;7.730;2023-03-24T07:14:03;5.25;;;1.55;;
67092;SDS011;54011;50.772;7.730;2023-03-24T07:16:29;6.50;;;1.63;;
67092;SDS011;54011;50.772;7.730;2023-03-24T07:19:18;3.47;;;1.30;;
67092;SDS011;54011;50.772;7.730;2023-03-24T07:21:47;4.47;;;1.55;;
67092;SDS011;54011;50.772;7.730;2023-03-24T07:24:17;5.07;;;2.07;;
67092;SDS011;54011;50.772;7.730;2023-03-24T07:26:57;6.65;;;1.77;;
67092;SDS011;54011;50.772;7.730;2023-03-24T07:29:23;2.92;;;1.48;;
67092;SDS011;54011;50.772;7.730;2023-03-24T07:32:02;4.15;;;1.83;;
67092;SDS011;54011;50.772;7.730;2023-03-24T07:34:28;5.43;;;1.70;;
67092;SDS011;54011;50.772;7.730;2023-03-24T07:36:54;7.15;;;2.28;;
67092;SDS011;54011;50.772;7.730;2023-03-24T07:39:19;3.67;;;1.63;;
67092;SDS011;54011;50.772;7.730;2023-03-24T07:41:46;7.97;;;1.98;;
67092;SDS011;54011;50.772;7.730;2023-03-24T07:44:26;4.18;;;1.70;;
67092;SDS011;54011;50.772;7.730;2023-03-24T07:46:51;5.03;;;1.90;;
67092;SDS011;54011;50.772;7.730;2023-03-24T07:49:18;4.47;;;1.70;;
67092;SDS011;54011;50.772;7.730;2023-03-24T07:51:48;6.05;;;1.90;;
67092;SDS011;54011;50.772;7.730;2023-03-24T07:54:28;4.57;;;1.85;;
67092;SDS011;54011;50.772;7.730;2023-03-24T07:56:55;7.72;;;2.00;;
67092;SDS011;54011;50.772;7.730;2023-03-24T07:59:21;4.97;;;1.85;;
67092;SDS011;54011;50.772;7.730;2023-03-24T08:01:47;6.47;;;1.95;;
67092;SDS011;54011;50.772;7.730;2023-03-24T08:04:15;6.00;;;1.90;;
67092;SDS011;54011;50.772;7.730;2023-03-24T08:07:03;5.18;;;1.55;;
67092;SDS011;54011;50.772;7.730;2023-03-24T08:09:29;6.22;;;1.88;;
67092;SDS011;54011;50.772;7.730;2023-03-24T08:11:54;5.90;;;1.95;;
67092;SDS011;54011;50.772;7.730;2023-03-24T08:14:20;4.70;;;1.67;;
67092;SDS011;54011;50.772;7.730;2023-03-24T08:16:46;5.43;;;1.77;;
67092;SDS011;54011;50.772;7.730;2023-03-24T08:19:11;6.35;;;1.73;;
67092;SDS011;54011;50.772;7.730;2023-03-24T08:21:37;6.82;;;1.90;;
67092;SDS011;54011;50.772;7.730;2023-03-24T08:24:02;5.63;;;1.95;;
67092;SDS011;54011;50.772;7.730;2023-03-24T08:26:28;4.13;;;1.80;;
67092;SDS011;54011;50.772;7.730;2023-03-24T08:28:54;6.40;;;2.03;;
67092;SDS011;54011;50.772;7.730;2023-03-24T08:31:20;5.78;;;2.50;;
67092;SDS011;54011;50.772;7.730;2023-03-24T08:33:46;8.10;;;3.13;;
67092;SDS011;54011;50.772;7.730;2023-03-24T08:36:12;7.70;;;3.05;;
67092;SDS011;54011;50.772;7.730;2023-03-24T08:38:37;11.15;;;3.75;;
67092;SDS011;54011;50.772;7.730;2023-03-24T08:41:03;9.23;;;3.55;;
67092;SDS011;54011;50.772;7.730;2023-03-24T08:43:31;7.72;;;3.47;;
67092;SDS011;54011;50.772;7.730;2023-03-24T08:45:58;11.60;;;3.80;;
67092;SDS011;54011;50.772;7.730;2023-03-24T08:48:25;10.52;;;3.78;;
67092;SDS011;54011;50.772;7.730;2023-03-24T08:50:52;10.07;;;3.30;;
67092;SDS011;54011;50.772;7.730;2023-03-24T08:53:18;10.05;;;3.58;;
67092;SDS011;54011;50.772;7.730;2023-03-24T08:55:44;7.72;;;2.97;;
67092;SDS011;54011;50.772;7.730;2023-03-24T08:58:14;9.15;;;2.88;;
67092;SDS011;54011;50.772;7.730;2023-03-24T09:03:08;6.57;;;2.47;;
67092;SDS011;54011;50.772;7.730;2023-03-24T09:05:38;6.75;;;2.20;;
67092;SDS011;54011;50.772;7.730;2023-03-24T09:08:05;8.70;;;2.50;;
67092;SDS011;54011;50.772;7.730;2023-03-24T09:10:32;7.80;;;2.47;;
67092;SDS011;54011;50.772;7.730;2023-03-24T09:12:57;10.43;;;2.65;;
67092;SDS011;54011;50.772;7.730;2023-03-24T09:15:23;5.75;;;1.90;;
67092;SDS011;54011;50.772;7.730;2023-03-24T09:17:48;7.35;;;2.20;;
67092;SDS011;54011;50.772;7.730;2023-03-24T09:20:14;11.38;;;2.60;;
67092;SDS011;54011;50.772;7.730;2023-03-24T09:22:41;9.35;;;2.15;;
67092;SDS011;54011;50.772;7.730;2023-03-24T09:25:09;8.40;;;2.40;;
67092;SDS011;54011;50.772;7.730;2023-03-24T09:27:36;11.40;;;2.53;;
67092;SDS011;54011;50.772;7.730;2023-03-24T09:30:02;10.50;;;2.85;;
67092;SDS011;54011;50.772;7.730;2023-03-24T09:32:28;5.35;;;2.28;;
67092;SDS011;54011;50.772;7.730;2023-03-24T09:34:54;8.95;;;2.30;;
67092;SDS011;54011;50.772;7.730;2023-03-24T09:37:20;9.90;;;2.45;;
67092;SDS011;54011;50.772;7.730;2023-03-24T09:39:46;9.85;;;2.40;;
67092;SDS011;54011;50.772;7.730;2023-03-24T09:42:14;10.75;;;2.17;;
67092;SDS011;54011;50.772;7.730;2023-03-24T09:44:50;8.90;;;2.75;;
67092;SDS011;54011;50.772;7.730;2023-03-24T09:50:05;8.93;;;2.10;;
67092;SDS011;54011;50.772;7.730;2023-03-24T09:53:03;8.52;;;2.17;;
67092;SDS011;54011;50.772;7.730;2023-03-24T09:55:33;9.23;;;2.30;;
67092;SDS011;54011;50.772;7.730;2023-03-24T09:58:04;6.43;;;2.10;;
67092;SDS011;54011;50.772;7.730;2023-03-24T10:00:32;10.45;;;2.10;;
67092;SDS011;54011;50.772;7.730;2023-03-24T10:03:40;3.97;;;1.45;;
67092;SDS011;54011;50.772;7.730;2023-03-24T10:08:43;5.78;;;1.70;;
67092;SDS011;54011;50.772;7.730;2023-03-24T10:11:29;7.80;;;2.22;;
67092;SDS011;54011;50.772;7.730;2023-03-24T10:14:14;5.05;;;1.48;;
67092;SDS011;54011;50.772;7.730;2023-03-24T10:19:57;11.80;;;2.05;;
67092;SDS011;54011;50.772;7.730;2023-03-24T10:22:37;9.43;;;1.83;;
67092;SDS011;54011;50.772;7.730;2023-03-24T10:28:22;8.20;;;2.35;;
67092;SDS011;54011;50.772;7.730;2023-03-24T10:30:58;8.50;;;2.10;;
67092;SDS011;54011;50.772;7.730;2023-03-24T10:33:27;9.52;;;2.85;;
67092;SDS011;54011;50.772;7.730;2023-03-24T10:36:01;6.72;;;2.08;;
67092;SDS011;54011;50.772;7.730;2023-03-24T10:38:30;8.75;;;1.80;;
67092;SDS011;54011;50.772;7.730;2023-03-24T10:40:56;7.97;;;1.83;;
67092;SDS011;54011;50.772;7.730;2023-03-24T10:43:22;7.05;;;2.20;;
67092;SDS011;54011;50.772;7.730;2023-03-24T10:45:48;9.30;;;1.75;;
67092;SDS011;54011;50.772;7.730;2023-03-24T10:51:04;4.90;;;1.35;;
67092;SDS011;54011;50.772;7.730;2023-03-24T10:53:30;8.00;;;1.73;;
67092;SDS011;54011;50.772;7.730;2023-03-24T10:55:58;8.50;;;1.85;;
67092;SDS011;54011;50.772;7.730;2023-03-24T10:58:37;5.95;;;1.48;;
67092;SDS011;54011;50.772;7.730;2023-03-24T11:03:45;6.05;;;1.10;;
67092;SDS011;54011;50.772;7.730;2023-03-24T11:06:12;6.40;;;1.30;;
67092;SDS011;54011;50.772;7.730;2023-03-24T11:08:42;5.97;;;1.45;;
67092;SDS011;54011;50.772;7.730;2023-03-24T11:11:26;6.32;;;1.60;;
67092;SDS011;54011;50.772;7.730;2023-03-24T11:13:56;11.27;;;1.52;;
67092;SDS011;54011;50.772;7.730;2023-03-24T11:16:38;5.55;;;1.30;;
67092;SDS011;54011;50.772;7.730;2023-03-24T11:19:16;6.03;;;1.40;;
67092;SDS011;54011;50.772;7.730;2023-03-24T11:21:44;6.35;;;1.35;;
67092;SDS011;54011;50.772;7.730;2023-03-24T11:24:16;6.95;;;1.08;;
67092;SDS011;54011;50.772;7.730;2023-03-24T11:26:58;8.57;;;1.60;;
67092;SDS011;54011;50.772;7.730;2023-03-24T11:29:26;9.50;;;1.50;;
67092;SDS011;54011;50.772;7.730;2023-03-24T11:32:02;9.48;;;1.55;;
67092;SDS011;54011;50.772;7.730;2023-03-24T11:34:35;5.30;;;1.15;;
67092;SDS011;54011;50.772;7.730;2023-03-24T11:37:25;3.83;;;0.85;;
67092;SDS011;54011;50.772;7.730;2023-03-24T11:40:14;5.68;;;1.20;;
67092;SDS011;54011;50.772;7.730;2023-03-24T11:42:45;8.73;;;1.40;;
67092;SDS011;54011;50.772;7.730;2023-03-24T11:48:04;6.65;;;1.58;;
67092;SDS011;54011;50.772;7.730;2023-03-24T11:50:38;4.43;;;1.20;;
67092;SDS011;54011;50.772;7.730;2023-03-24T11:59:15;6.45;;;1.27;;
67092;SDS011;54011;50.772;7.730;2023-03-24T12:01:53;10.02;;;1.17;;
67092;SDS011;54011;50.772;7.730;2023-03-24T12:04:28;4.68;;;1.00;;
67092;SDS011;54011;50.772;7.730;2023-03-24T12:12:50;8.73;;;1.20;;
67092;SDS011;54011;50.772;7.730;2023-03-24T12:18:01;3.38;;;0.85;;
67092;SDS011;54011;50.772;7.730;2023-03-24T12:20:46;6.28;;;1.33;;
67092;SDS011;54011;50.772;7.730;2023-03-24T12:26:17;7.63;;;1.45;;
67092;SDS011;54011;50.772;7.730;2023-03-24T12:40:41;5.72;;;0.98;;
67092;SDS011;54011;50.772;7.730;2023-03-24T12:45:59;2.33;;;0.80;;
67092;SDS011;54011;50.772;7.730;2023-03-24T12:53:52;4.80;;;1.20;;
67092;SDS011;54011;50.772;7.730;2023-03-24T12:59:05;5.50;;;1.17;;
67092;SDS011;54011;50.772;7.730;2023-03-24T13:01:38;1.73;;;0.55;;
67092;SDS011;54011;50.772;7.730;2023-03-24T13:04:09;7.63;;;1.58;;
67092;SDS011;54011;50.772;7.730;2023-03-24T13:06:38;3.63;;;0.77;;
67092;SDS011;54011;50.772;7.730;2023-03-24T13:09:53;5.95;;;1.30;;
67092;SDS011;54011;50.772;7.730;2023-03-24T13:14:54;5.20;;;1.10;;
67092;SDS011;54011;50.772;7.730;2023-03-24T13:17:29;4.82;;;1.33;;
67092;SDS011;54011;50.772;7.730;2023-03-24T13:20:00;6.75;;;1.30;;
67092;SDS011;54011;50.772;7.730;2023-03-24T13:22:31;4.70;;;1.15;;
67092;SDS011;54011;50.772;7.730;2023-03-24T13:25:00;4.97;;;1.13;;
67092;SDS011;54011;50.772;7.730;2023-03-24T13:27:31;3.40;;;0.93;;
67092;SDS011;54011;50.772;7.730;2023-03-24T13:32:52;4.03;;;1.00;;
67092;SDS011;54011;50.772;7.730;2023-03-24T13:38:06;4.13;;;0.98;;
67092;SDS011;54011;50.772;7.730;2023-03-24T13:40:40;7.53;;;1.20;;
67092;SDS011;54011;50.772;7.730;2023-03-24T13:43:10;3.88;;;0.90;;
67092;SDS011;54011;50.772;7.730;2023-03-24T13:51:34;5.57;;;1.15;;
67092;SDS011;54011;50.772;7.730;2023-03-24T13:53:53;5.68;;;1.00;;
67092;SDS011;54011;50.772;7.730;2023-03-24T14:15:30;7.35;;;1.20;;
67092;SDS011;54011;50.772;7.730;2023-03-24T14:18:15;3.30;;;0.70;;
67092;SDS011;54011;50.772;7.730;2023-03-24T14:26:28;3.40;;;0.90;;
67092;SDS011;54011;50.772;7.730;2023-03-24T14:28:58;3.05;;;0.80;;
67092;SDS011;54011;50.772;7.730;2023-03-24T14:31:28;2.80;;;0.77;;
67092;SDS011;54011;50.772;7.730;2023-03-24T14:38:55;3.90;;;1.00;;
67092;SDS011;54011;50.772;7.730;2023-03-24T14:41:30;3.47;;;1.00;;
67092;SDS011;54011;50.772;7.730;2023-03-24T14:44:03;3.65;;;0.80;;
67092;SDS011;54011;50.772;7.730;2023-03-24T14:49:23;4.45;;;1.00;;
67092;SDS011;54011;50.772;7.730;2023-03-24T14:54:16;8.52;;;1.27;;
67092;SDS011;54011;50.772;7.730;2023-03-24T14:56:49;4.80;;;0.90;;
67092;SDS011;54011;50.772;7.730;2023-03-24T14:59:26;6.32;;;1.70;;
67092;SDS011;54011;50.772;7.730;2023-03-24T15:02:20;6.85;;;0.75;;
67092;SDS011;54011;50.772;7.730;2023-03-24T15:05:14;5.57;;;1.00;;
67092;SDS011;54011;50.772;7.730;2023-03-24T15:07:44;2.88;;;0.90;;
67092;SDS011;54011;50.772;7.730;2023-03-24T15:10:24;3.17;;;0.85;;
67092;SDS011;54011;50.772;7.730;2023-03-24T15:12:52;5.25;;;1.20;;
67092;SDS011;54011;50.772;7.730;2023-03-24T15:15:18;5.93;;;1.10;;
67092;SDS011;54011;50.772;7.730;2023-03-24T15:17:49;3.45;;;0.75;;
67092;SDS011;54011;50.772;7.730;2023-03-24T15:20:19;3.35;;;0.88;;
67092;SDS011;54011;50.772;7.730;2023-03-24T15:23:06;4.90;;;0.98;;
67092;SDS011;54011;50.772;7.730;2023-03-24T15:25:32;2.65;;;0.85;;
67092;SDS011;54011;50.772;7.730;2023-03-24T15:27:58;3.08;;;0.80;;
67092;SDS011;54011;50.772;7.730;2023-03-24T15:30:24;4.72;;;0.80;;
67092;SDS011;54011;50.772;7.730;2023-03-24T15:32:50;2.25;;;0.73;;
67092;SDS011;54011;50.772;7.730;2023-03-24T15:35:25;3.72;;;0.75;;
67092;SDS011;54011;50.772;7.730;2023-03-24T15:37:51;5.13;;;0.90;;
67092;SDS011;54011;50.772;7.730;2023-03-24T15:42:50;4.55;;;1.02;;
67092;SDS011;54011;50.772;7.730;2023-03-24T15:45:20;5.20;;;1.10;;
67092;SDS011;54011;50.772;7.730;2023-03-24T15:47:51;4.65;;;0.95;;
67092;SDS011;54011;50.772;7.730;2023-03-24T15:53:02;4.22;;;0.88;;
67092;SDS011;54011;50.772;7.730;2023-03-24T15:55:31;5.13;;;0.80;;
67092;SDS011;54011;50.772;7.730;2023-03-24T15:58:17;5.95;;;1.10;;
67092;SDS011;54011;50.772;7.730;2023-03-24T16:00:46;7.38;;;1.50;;
67092;SDS011;54011;50.772;7.730;2023-03-24T16:03:14;6.00;;;1.13;;
67092;SDS011;54011;50.772;7.730;2023-03-24T16:05:47;5.13;;;1.25;;
67092;SDS011;54011;50.772;7.730;2023-03-24T16:08:31;7.63;;;1.50;;
67092;SDS011;54011;50.772;7.730;2023-03-24T16:11:09;4.40;;;1.00;;
67092;SDS011;54011;50.772;7.730;2023-03-24T16:13:36;3.53;;;1.17;;
67092;SDS011;54011;50.772;7.730;2023-03-24T16:16:07;5.38;;;1.20;;
67092;SDS011;54011;50.772;7.730;2023-03-24T16:18:47;3.45;;;1.00;;
67092;SDS011;54011;50.772;7.730;2023-03-24T16:21:14;6.18;;;1.27;;
67092;SDS011;54011;50.772;7.730;2023-03-24T16:23:42;6.65;;;1.17;;
67092;SDS011;54011;50.772;7.730;2023-03-24T16:26:18;6.15;;;1.38;;
67092;SDS011;54011;50.772;7.730;2023-03-24T16:28:48;6.53;;;1.50;;
67092;SDS011;54011;50.772;7.730;2023-03-24T16:31:24;6.78;;;1.20;;
67092;SDS011;54011;50.772;7.730;2023-03-24T16:33:55;5.20;;;1.10;;
67092;SDS011;54011;50.772;7.730;2023-03-24T16:36:21;6.47;;;1.30;;
67092;SDS011;54011;50.772;7.730;2023-03-24T16:38:51;5.03;;;1.40;;
67092;SDS011;54011;50.772;7.730;2023-03-24T16:41:17;3.90;;;1.25;;
67092;SDS011;54011;50.772;7.730;2023-03-24T16:43:43;6.80;;;1.02;;
67092;SDS011;54011;50.772;7.730;2023-03-24T16:46:13;6.10;;;1.55;;
67092;SDS011;54011;50.772;7.730;2023-03-24T16:48:40;5.90;;;1.30;;
67092;SDS011;54011;50.772;7.730;2023-03-24T16:51:10;7.43;;;1.42;;
67092;SDS011;54011;50.772;7.730;2023-03-24T16:56:06;6.75;;;1.40;;
67092;SDS011;54011;50.772;7.730;2023-03-24T16:58:32;6.03;;;1.27;;
67092;SDS011;54011;50.772;7.730;2023-03-24T17:00:58;5.10;;;1.05;;
67092;SDS011;54011;50.772;7.730;2023-03-24T17:03:24;8.63;;;1.25;;
67092;SDS011;54011;50.772;7.730;2023-03-24T17:05:53;4.80;;;1.33;;
67092;SDS011;54011;50.772;7.730;2023-03-24T17:08:20;7.80;;;1.70;;
67092;SDS011;54011;50.772;7.730;2023-03-24T17:10:46;5.03;;;1.25;;
67092;SDS011;54011;50.772;7.730;2023-03-24T17:13:18;6.70;;;1.38;;
67092;SDS011;54011;50.772;7.730;2023-03-24T17:15:48;5.60;;;1.50;;
67092;SDS011;54011;50.772;7.730;2023-03-24T17:18:15;4.50;;;1.15;;
67092;SDS011;54011;50.772;7.730;2023-03-24T17:20:42;5.97;;;1.42;;
67092;SDS011;54011;50.772;7.730;2023-03-24T17:23:08;3.85;;;1.10;;
67092;SDS011;54011;50.772;7.730;2023-03-24T17:25:35;9.52;;;3.40;;
67092;SDS011;54011;50.772;7.730;2023-03-24T17:28:01;6.53;;;2.15;;
67092;SDS011;54011;50.772;7.730;2023-03-24T17:30:28;8.55;;;1.63;;
67092;SDS011;54011;50.772;7.730;2023-03-24T17:32:54;6.18;;;1.70;;
67092;SDS011;54011;50.772;7.730;2023-03-24T17:35:21;9.57;;;1.75;;
67092;SDS011;54011;50.772;7.730;2023-03-24T17:37:47;5.82;;;1.48;;
67092;SDS011;54011;50.772;7.730;2023-03-24T17:40:14;5.70;;;1.48;;
67092;SDS011;54011;50.772;7.730;2023-03-24T17:42:42;5.75;;;1.23;;
67092;SDS011;54011;50.772;7.730;2023-03-24T17:45:10;2.15;;;0.70;;
67092;SDS011;54011;50.772;7.730;2023-03-24T17:47:38;3.50;;;1.25;;
67092;SDS011;54011;50.772;7.730;2023-03-24T17:50:04;2.35;;;0.90;;
67092;SDS011;54011;50.772;7.730;2023-03-24T17:52:44;2.25;;;0.70;;
67092;SDS011;54011;50.772;7.730;2023-03-24T17:55:11;3.38;;;0.90;;
67092;SDS011;54011;50.772;7.730;2023-03-24T17:57:38;4.20;;;1.00;;
67092;SDS011;54011;50.772;7.730;2023-03-24T18:00:05;5.57;;;1.25;;
67092;SDS011;54011;50.772;7.730;2023-03-24T18:02:35;4.85;;;1.30;;
67092;SDS011;54011;50.772;7.730;2023-03-24T18:05:05;5.25;;;1.08;;
67092;SDS011;54011;50.772;7.730;2023-03-24T18:07:32;3.25;;;1.05;;
67092;SDS011;54011;50.772;7.730;2023-03-24T18:09:59;4.20;;;1.10;;